sensor_id;sensor_type;location;lat;lon;timestamp;P1;durP1;ratioP1;P2;durP2;ratioP2
52186;SDS011;38161;53.020;6.598;2022-09-02T00:00:45;3.97;;;1.58;;
52186;SDS011;38161;53.020;6.598;2022-09-02T00:03:13;2.60;;;1.75;;
52186;SDS011;38161;53.020;6.598;2022-09-02T00:05:39;2.92;;;1.65;;
52186;SDS011;38161;53.020;6.598;2022-09-02T00:08:06;3.03;;;1.52;;
52186;SDS011;38161;53.020;6.598;2022-09-02T00:10:33;3.70;;;1.73;;
52186;SDS011;38161;53.020;6.598;2022-09-02T00:13:08;3.88;;;1.58;;
52186;SDS011;38161;53.020;6.598;2022-09-02T00:15:36;6.13;;;1.60;;
52186;SDS011;38161;53.020;6.598;2022-09-02T00:18:02;7.03;;;1.52;;
52186;SDS011;38161;53.020;6.598;2022-09-02T00:22:55;3.80;;;1.67;;
52186;SDS011;38161;53.020;6.598;2022-09-02T00:25:21;3.05;;;1.83;;
52186;SDS011;38161;53.020;6.598;2022-09-02T00:27:47;2.55;;;1.40;;
52186;SDS011;38161;53.020;6.598;2022-09-02T00:30:14;3.83;;;1.63;;
52186;SDS011;38161;53.020;6.598;2022-09-02T00:32:39;2.58;;;1.45;;
52186;SDS011;38161;53.020;6.598;2022-09-02T00:35:05;3.63;;;1.58;;
52186;SDS011;38161;53.020;6.598;2022-09-02T00:37:32;3.80;;;1.67;;
52186;SDS011;38161;53.020;6.598;2022-09-02T00:39:57;4.75;;;1.50;;
52186;SDS011;38161;53.020;6.598;2022-09-02T00:42:23;1.92;;;1.52;;
52186;SDS011;38161;53.020;6.598;2022-09-02T00:44:50;3.28;;;1.70;;
52186;SDS011;38161;53.020;6.598;2022-09-02T00:47:17;2.72;;;1.40;;
52186;SDS011;38161;53.020;6.598;2022-09-02T00:49:44;2.63;;;1.70;;
52186;SDS011;38161;53.020;6.598;2022-09-02T00:52:16;2.42;;;1.60;;
52186;SDS011;38161;53.020;6.598;2022-09-02T00:54:51;2.20;;;1.65;;
52186;SDS011;38161;53.020;6.598;2022-09-02T00:57:21;8.55;;;1.55;;
52186;SDS011;38161;53.020;6.598;2022-09-02T01:02:42;3.08;;;1.70;;
52186;SDS011;38161;53.020;6.598;2022-09-02T01:05:11;2.97;;;1.65;;
52186;SDS011;38161;53.020;6.598;2022-09-02T01:07:40;2.85;;;1.85;;
52186;SDS011;38161;53.020;6.598;2022-09-02T01:12:35;4.72;;;1.88;;
52186;SDS011;38161;53.020;6.598;2022-09-02T01:15:02;2.25;;;1.65;;
52186;SDS011;38161;53.020;6.598;2022-09-02T01:17:31;3.40;;;1.90;;
52186;SDS011;38161;53.020;6.598;2022-09-02T01:20:04;4.93;;;1.77;;
52186;SDS011;38161;53.020;6.598;2022-09-02T01:25:05;3.05;;;1.70;;
52186;SDS011;38161;53.020;6.598;2022-09-02T01:27:40;3.17;;;1.77;;
52186;SDS011;38161;53.020;6.598;2022-09-02T01:30:08;1.92;;;1.58;;
52186;SDS011;38161;53.020;6.598;2022-09-02T01:32:39;5.03;;;1.60;;
52186;SDS011;38161;53.020;6.598;2022-09-02T01:35:04;3.63;;;2.10;;
52186;SDS011;38161;53.020;6.598;2022-09-02T01:37:31;3.70;;;1.80;;
52186;SDS011;38161;53.020;6.598;2022-09-02T01:39:57;2.85;;;1.70;;
52186;SDS011;38161;53.020;6.598;2022-09-02T01:44:49;2.35;;;1.60;;
52186;SDS011;38161;53.020;6.598;2022-09-02T01:47:17;3.80;;;1.50;;
52186;SDS011;38161;53.020;6.598;2022-09-02T01:49:46;2.70;;;1.70;;
52186;SDS011;38161;53.020;6.598;2022-09-02T01:52:13;4.45;;;2.13;;
52186;SDS011;38161;53.020;6.598;2022-09-02T01:54:40;4.60;;;1.90;;
52186;SDS011;38161;53.020;6.598;2022-09-02T01:57:06;3.15;;;1.58;;
52186;SDS011;38161;53.020;6.598;2022-09-02T01:59:32;5.13;;;1.85;;
52186;SDS011;38161;53.020;6.598;2022-09-02T02:01:58;2.90;;;1.80;;
52186;SDS011;38161;53.020;6.598;2022-09-02T02:04:24;3.05;;;1.70;;
52186;SDS011;38161;53.020;6.598;2022-09-02T02:06:50;3.65;;;1.80;;
52186;SDS011;38161;53.020;6.598;2022-09-02T02:09:16;3.05;;;1.60;;
52186;SDS011;38161;53.020;6.598;2022-09-02T02:11:43;3.03;;;1.80;;
52186;SDS011;38161;53.020;6.598;2022-09-02T02:14:10;6.22;;;1.73;;
52186;SDS011;38161;53.020;6.598;2022-09-02T02:16:36;2.85;;;1.73;;
52186;SDS011;38161;53.020;6.598;2022-09-02T02:19:02;3.45;;;1.67;;
52186;SDS011;38161;53.020;6.598;2022-09-02T02:23:55;3.08;;;1.83;;
52186;SDS011;38161;53.020;6.598;2022-09-02T02:26:24;2.60;;;1.70;;
52186;SDS011;38161;53.020;6.598;2022-09-02T02:28:50;3.75;;;1.90;;
52186;SDS011;38161;53.020;6.598;2022-09-02T02:31:15;2.95;;;1.90;;
52186;SDS011;38161;53.020;6.598;2022-09-02T02:33:41;5.50;;;1.87;;
52186;SDS011;38161;53.020;6.598;2022-09-02T02:36:07;3.03;;;1.60;;
52186;SDS011;38161;53.020;6.598;2022-09-02T02:38:33;3.08;;;1.80;;
52186;SDS011;38161;53.020;6.598;2022-09-02T02:41:00;2.33;;;1.70;;
52186;SDS011;38161;53.020;6.598;2022-09-02T02:43:28;4.53;;;1.70;;
52186;SDS011;38161;53.020;6.598;2022-09-02T02:45:54;2.55;;;1.73;;
52186;SDS011;38161;53.020;6.598;2022-09-02T02:48:21;5.50;;;1.90;;
52186;SDS011;38161;53.020;6.598;2022-09-02T02:50:47;2.70;;;1.90;;
52186;SDS011;38161;53.020;6.598;2022-09-02T02:53:12;2.47;;;1.80;;
52186;SDS011;38161;53.020;6.598;2022-09-02T02:55:38;2.45;;;1.75;;
52186;SDS011;38161;53.020;6.598;2022-09-02T02:58:04;3.50;;;2.00;;
52186;SDS011;38161;53.020;6.598;2022-09-02T03:00:31;2.70;;;1.70;;
52186;SDS011;38161;53.020;6.598;2022-09-02T03:03:00;4.40;;;1.90;;
52186;SDS011;38161;53.020;6.598;2022-09-02T03:05:28;3.08;;;1.83;;
52186;SDS011;38161;53.020;6.598;2022-09-02T03:07:55;3.45;;;1.80;;
52186;SDS011;38161;53.020;6.598;2022-09-02T03:10:21;2.97;;;1.83;;
52186;SDS011;38161;53.020;6.598;2022-09-02T03:12:48;5.95;;;1.95;;
52186;SDS011;38161;53.020;6.598;2022-09-02T03:15:15;3.25;;;1.73;;
52186;SDS011;38161;53.020;6.598;2022-09-02T03:17:43;3.13;;;1.83;;
52186;SDS011;38161;53.020;6.598;2022-09-02T03:20:09;2.22;;;1.73;;
52186;SDS011;38161;53.020;6.598;2022-09-02T03:25:06;5.63;;;1.90;;
52186;SDS011;38161;53.020;6.598;2022-09-02T03:27:33;2.33;;;1.73;;
52186;SDS011;38161;53.020;6.598;2022-09-02T03:30:00;7.15;;;1.90;;
52186;SDS011;38161;53.020;6.598;2022-09-02T03:32:26;3.40;;;1.80;;
52186;SDS011;38161;53.020;6.598;2022-09-02T03:34:52;6.20;;;2.00;;
52186;SDS011;38161;53.020;6.598;2022-09-02T03:37:18;3.05;;;1.90;;
52186;SDS011;38161;53.020;6.598;2022-09-02T03:39:45;2.95;;;1.70;;
52186;SDS011;38161;53.020;6.598;2022-09-02T03:42:10;4.37;;;1.90;;
52186;SDS011;38161;53.020;6.598;2022-09-02T03:44:37;4.43;;;1.92;;
52186;SDS011;38161;53.020;6.598;2022-09-02T03:47:04;3.55;;;1.85;;
52186;SDS011;38161;53.020;6.598;2022-09-02T03:49:30;3.78;;;2.03;;
52186;SDS011;38161;53.020;6.598;2022-09-02T03:51:56;4.40;;;1.80;;
52186;SDS011;38161;53.020;6.598;2022-09-02T03:54:22;3.30;;;1.80;;
52186;SDS011;38161;53.020;6.598;2022-09-02T03:56:48;2.78;;;1.85;;
52186;SDS011;38161;53.020;6.598;2022-09-02T03:59:14;4.13;;;2.42;;
52186;SDS011;38161;53.020;6.598;2022-09-02T04:01:40;3.20;;;2.03;;
52186;SDS011;38161;53.020;6.598;2022-09-02T04:04:06;2.28;;;1.67;;
52186;SDS011;38161;53.020;6.598;2022-09-02T04:06:32;2.78;;;1.90;;
52186;SDS011;38161;53.020;6.598;2022-09-02T04:08:58;4.32;;;1.77;;
52186;SDS011;38161;53.020;6.598;2022-09-02T04:11:25;2.88;;;1.90;;
52186;SDS011;38161;53.020;6.598;2022-09-02T04:13:51;2.88;;;1.88;;
52186;SDS011;38161;53.020;6.598;2022-09-02T04:16:19;5.00;;;1.98;;
52186;SDS011;38161;53.020;6.598;2022-09-02T04:18:51;4.03;;;1.90;;
52186;SDS011;38161;53.020;6.598;2022-09-02T04:21:17;3.92;;;1.85;;
52186;SDS011;38161;53.020;6.598;2022-09-02T04:23:43;2.88;;;1.80;;
52186;SDS011;38161;53.020;6.598;2022-09-02T04:26:11;2.45;;;1.73;;
52186;SDS011;38161;53.020;6.598;2022-09-02T04:28:38;3.08;;;2.10;;
52186;SDS011;38161;53.020;6.598;2022-09-02T04:31:05;3.65;;;1.80;;
52186;SDS011;38161;53.020;6.598;2022-09-02T04:33:33;3.03;;;1.73;;
52186;SDS011;38161;53.020;6.598;2022-09-02T04:38:28;3.80;;;1.85;;
52186;SDS011;38161;53.020;6.598;2022-09-02T04:40:54;3.73;;;2.10;;
52186;SDS011;38161;53.020;6.598;2022-09-02T04:43:19;2.90;;;2.08;;
52186;SDS011;38161;53.020;6.598;2022-09-02T04:45:45;3.35;;;2.20;;
52186;SDS011;38161;53.020;6.598;2022-09-02T04:48:11;2.97;;;1.73;;
52186;SDS011;38161;53.020;6.598;2022-09-02T04:50:37;2.47;;;1.70;;
52186;SDS011;38161;53.020;6.598;2022-09-02T04:53:04;5.03;;;2.15;;
52186;SDS011;38161;53.020;6.598;2022-09-02T04:55:31;4.13;;;2.30;;
52186;SDS011;38161;53.020;6.598;2022-09-02T04:57:58;2.85;;;2.10;;
52186;SDS011;38161;53.020;6.598;2022-09-02T05:00:23;2.95;;;1.90;;
52186;SDS011;38161;53.020;6.598;2022-09-02T05:02:50;5.18;;;2.42;;
52186;SDS011;38161;53.020;6.598;2022-09-02T05:05:17;3.05;;;1.95;;
52186;SDS011;38161;53.020;6.598;2022-09-02T05:07:43;3.00;;;2.15;;
52186;SDS011;38161;53.020;6.598;2022-09-02T05:10:09;3.27;;;2.23;;
52186;SDS011;38161;53.020;6.598;2022-09-02T05:12:37;3.13;;;2.13;;
52186;SDS011;38161;53.020;6.598;2022-09-02T05:15:04;3.80;;;2.22;;
52186;SDS011;38161;53.020;6.598;2022-09-02T05:17:31;5.00;;;2.58;;
52186;SDS011;38161;53.020;6.598;2022-09-02T05:19:59;5.38;;;2.30;;
52186;SDS011;38161;53.020;6.598;2022-09-02T05:22:25;3.38;;;2.40;;
52186;SDS011;38161;53.020;6.598;2022-09-02T05:24:53;3.30;;;1.95;;
52186;SDS011;38161;53.020;6.598;2022-09-02T05:29:45;3.30;;;2.33;;
52186;SDS011;38161;53.020;6.598;2022-09-02T05:32:11;4.70;;;2.67;;
52186;SDS011;38161;53.020;6.598;2022-09-02T05:34:37;3.75;;;1.80;;
52186;SDS011;38161;53.020;6.598;2022-09-02T05:37:04;5.40;;;2.40;;
52186;SDS011;38161;53.020;6.598;2022-09-02T05:39:30;6.13;;;2.58;;
52186;SDS011;38161;53.020;6.598;2022-09-02T05:41:56;5.53;;;2.50;;
52186;SDS011;38161;53.020;6.598;2022-09-02T05:44:22;3.10;;;2.08;;
52186;SDS011;38161;53.020;6.598;2022-09-02T05:46:48;3.83;;;2.57;;
52186;SDS011;38161;53.020;6.598;2022-09-02T05:49:14;4.18;;;2.35;;
52186;SDS011;38161;53.020;6.598;2022-09-02T05:51:49;7.68;;;2.30;;
52186;SDS011;38161;53.020;6.598;2022-09-02T05:54:24;3.35;;;2.20;;
52186;SDS011;38161;53.020;6.598;2022-09-02T05:56:53;4.35;;;3.20;;
52186;SDS011;38161;53.020;6.598;2022-09-02T05:59:22;4.95;;;2.60;;
52186;SDS011;38161;53.020;6.598;2022-09-02T06:01:49;6.18;;;2.70;;
52186;SDS011;38161;53.020;6.598;2022-09-02T06:04:16;5.50;;;2.65;;
52186;SDS011;38161;53.020;6.598;2022-09-02T06:06:42;4.65;;;2.67;;
52186;SDS011;38161;53.020;6.598;2022-09-02T06:09:09;4.68;;;2.60;;
52186;SDS011;38161;53.020;6.598;2022-09-02T06:11:37;5.57;;;2.70;;
52186;SDS011;38161;53.020;6.598;2022-09-02T06:14:11;3.60;;;2.28;;
52186;SDS011;38161;53.020;6.598;2022-09-02T06:16:38;4.15;;;3.00;;
52186;SDS011;38161;53.020;6.598;2022-09-02T06:19:05;4.75;;;2.95;;
52186;SDS011;38161;53.020;6.598;2022-09-02T06:23:58;4.38;;;2.45;;
52186;SDS011;38161;53.020;6.598;2022-09-02T06:26:24;4.18;;;2.88;;
52186;SDS011;38161;53.020;6.598;2022-09-02T06:28:50;4.30;;;2.67;;
52186;SDS011;38161;53.020;6.598;2022-09-02T06:31:17;4.93;;;2.63;;
52186;SDS011;38161;53.020;6.598;2022-09-02T06:33:45;5.53;;;2.50;;
52186;SDS011;38161;53.020;6.598;2022-09-02T06:36:13;7.63;;;2.80;;
52186;SDS011;38161;53.020;6.598;2022-09-02T06:38:41;15.35;;;3.30;;
52186;SDS011;38161;53.020;6.598;2022-09-02T06:41:12;6.82;;;2.78;;
52186;SDS011;38161;53.020;6.598;2022-09-02T06:43:41;6.85;;;2.80;;
52186;SDS011;38161;53.020;6.598;2022-09-02T06:46:07;8.05;;;3.28;;
52186;SDS011;38161;53.020;6.598;2022-09-02T06:48:38;6.57;;;3.33;;
52186;SDS011;38161;53.020;6.598;2022-09-02T06:51:03;7.10;;;2.93;;
52186;SDS011;38161;53.020;6.598;2022-09-02T06:53:29;18.80;;;3.22;;
52186;SDS011;38161;53.020;6.598;2022-09-02T06:55:55;5.23;;;2.97;;
52186;SDS011;38161;53.020;6.598;2022-09-02T06:58:21;5.07;;;3.20;;
52186;SDS011;38161;53.020;6.598;2022-09-02T07:00:46;5.70;;;3.10;;
52186;SDS011;38161;53.020;6.598;2022-09-02T07:03:12;5.40;;;2.80;;
52186;SDS011;38161;53.020;6.598;2022-09-02T07:06:04;4.05;;;2.40;;
52186;SDS011;38161;53.020;6.598;2022-09-02T07:08:35;5.60;;;2.78;;
52186;SDS011;38161;53.020;6.598;2022-09-02T07:11:03;9.52;;;3.30;;
52186;SDS011;38161;53.020;6.598;2022-09-02T07:13:30;3.60;;;2.40;;
52186;SDS011;38161;53.020;6.598;2022-09-02T07:15:56;4.93;;;2.63;;
52186;SDS011;38161;53.020;6.598;2022-09-02T07:18:22;3.97;;;2.60;;
52186;SDS011;38161;53.020;6.598;2022-09-02T07:20:48;5.00;;;2.55;;
52186;SDS011;38161;53.020;6.598;2022-09-02T07:23:14;4.32;;;2.53;;
52186;SDS011;38161;53.020;6.598;2022-09-02T07:25:41;5.00;;;2.70;;
52186;SDS011;38161;53.020;6.598;2022-09-02T07:30:33;3.78;;;2.30;;
52186;SDS011;38161;53.020;6.598;2022-09-02T07:32:59;5.03;;;2.42;;
52186;SDS011;38161;53.020;6.598;2022-09-02T07:35:26;6.55;;;2.47;;
52186;SDS011;38161;53.020;6.598;2022-09-02T07:37:52;6.50;;;2.53;;
52186;SDS011;38161;53.020;6.598;2022-09-02T07:40:18;5.95;;;2.30;;
52186;SDS011;38161;53.020;6.598;2022-09-02T07:42:44;4.35;;;2.50;;
52186;SDS011;38161;53.020;6.598;2022-09-02T07:45:10;4.47;;;2.60;;
52186;SDS011;38161;53.020;6.598;2022-09-02T07:47:36;6.35;;;2.78;;
52186;SDS011;38161;53.020;6.598;2022-09-02T07:50:02;4.57;;;2.63;;
52186;SDS011;38161;53.020;6.598;2022-09-02T07:52:29;9.63;;;2.72;;
52186;SDS011;38161;53.020;6.598;2022-09-02T07:54:54;4.63;;;2.50;;
52186;SDS011;38161;53.020;6.598;2022-09-02T07:57:20;5.00;;;2.33;;
52186;SDS011;38161;53.020;6.598;2022-09-02T07:59:47;4.68;;;2.42;;
52186;SDS011;38161;53.020;6.598;2022-09-02T08:02:13;4.47;;;2.20;;
52186;SDS011;38161;53.020;6.598;2022-09-02T08:04:41;5.97;;;2.40;;
52186;SDS011;38161;53.020;6.598;2022-09-02T08:07:07;6.20;;;2.45;;
52186;SDS011;38161;53.020;6.598;2022-09-02T08:09:34;7.80;;;2.00;;
52186;SDS011;38161;53.020;6.598;2022-09-02T08:11:59;4.05;;;2.47;;
52186;SDS011;38161;53.020;6.598;2022-09-02T08:14:25;6.00;;;2.30;;
52186;SDS011;38161;53.020;6.598;2022-09-02T08:16:53;7.28;;;2.28;;
52186;SDS011;38161;53.020;6.598;2022-09-02T08:19:20;7.93;;;2.40;;
52186;SDS011;38161;53.020;6.598;2022-09-02T08:21:47;3.67;;;2.47;;
52186;SDS011;38161;53.020;6.598;2022-09-02T08:24:13;3.95;;;2.17;;
52186;SDS011;38161;53.020;6.598;2022-09-02T08:26:39;3.95;;;2.30;;
52186;SDS011;38161;53.020;6.598;2022-09-02T08:29:05;3.47;;;2.20;;
52186;SDS011;38161;53.020;6.598;2022-09-02T08:31:32;6.85;;;2.75;;
52186;SDS011;38161;53.020;6.598;2022-09-02T08:34:00;3.13;;;2.05;;
52186;SDS011;38161;53.020;6.598;2022-09-02T08:36:26;3.60;;;2.15;;
52186;SDS011;38161;53.020;6.598;2022-09-02T08:38:52;2.55;;;1.90;;
52186;SDS011;38161;53.020;6.598;2022-09-02T08:43:45;6.63;;;2.63;;
52186;SDS011;38161;53.020;6.598;2022-09-02T08:46:12;4.82;;;2.17;;
52186;SDS011;38161;53.020;6.598;2022-09-02T08:51:24;4.90;;;1.88;;
52186;SDS011;38161;53.020;6.598;2022-09-02T08:54:07;4.68;;;1.85;;
52186;SDS011;38161;53.020;6.598;2022-09-02T08:56:38;3.95;;;2.08;;
52186;SDS011;38161;53.020;6.598;2022-09-02T08:59:05;5.35;;;2.10;;
52186;SDS011;38161;53.020;6.598;2022-09-02T09:04:36;3.88;;;2.20;;
52186;SDS011;38161;53.020;6.598;2022-09-02T09:07:32;3.13;;;1.60;;
52186;SDS011;38161;53.020;6.598;2022-09-02T09:18:18;3.17;;;1.65;;
52186;SDS011;38161;53.020;6.598;2022-09-02T09:20:52;6.63;;;1.88;;
52186;SDS011;38161;53.020;6.598;2022-09-02T09:25:55;4.00;;;1.90;;
52186;SDS011;38161;53.020;6.598;2022-09-02T09:28:28;5.90;;;2.00;;
52186;SDS011;38161;53.020;6.598;2022-09-02T09:30:53;5.85;;;2.05;;
52186;SDS011;38161;53.020;6.598;2022-09-02T09:33:20;3.42;;;1.63;;
52186;SDS011;38161;53.020;6.598;2022-09-02T09:35:53;3.40;;;2.28;;
52186;SDS011;38161;53.020;6.598;2022-09-02T09:38:28;3.42;;;1.60;;
52186;SDS011;38161;53.020;6.598;2022-09-02T09:43:42;2.88;;;1.52;;
52186;SDS011;38161;53.020;6.598;2022-09-02T09:46:25;2.92;;;1.52;;
52186;SDS011;38161;53.020;6.598;2022-09-02T09:48:58;6.97;;;1.45;;
52186;SDS011;38161;53.020;6.598;2022-09-02T09:51:24;4.03;;;1.80;;
52186;SDS011;38161;53.020;6.598;2022-09-02T09:53:50;5.55;;;1.70;;
52186;SDS011;38161;53.020;6.598;2022-09-02T09:58:45;4.20;;;1.83;;
52186;SDS011;38161;53.020;6.598;2022-09-02T10:06:50;2.35;;;1.50;;
52186;SDS011;38161;53.020;6.598;2022-09-02T10:11:58;3.75;;;1.38;;
52186;SDS011;38161;53.020;6.598;2022-09-02T10:14:39;5.40;;;1.40;;
52186;SDS011;38161;53.020;6.598;2022-09-02T10:17:18;3.67;;;1.60;;
52186;SDS011;38161;53.020;6.598;2022-09-02T10:20:02;2.25;;;1.42;;
52186;SDS011;38161;53.020;6.598;2022-09-02T10:30:39;2.70;;;1.00;;
52186;SDS011;38161;53.020;6.598;2022-09-02T10:33:29;3.92;;;1.60;;
52186;SDS011;38161;53.020;6.598;2022-09-02T10:38:53;3.72;;;1.23;;
52186;SDS011;38161;53.020;6.598;2022-09-02T10:41:41;3.45;;;1.20;;
52186;SDS011;38161;53.020;6.598;2022-09-02T11:00:32;2.78;;;1.52;;
52186;SDS011;38161;53.020;6.598;2022-09-02T11:05:50;3.58;;;1.25;;
52186;SDS011;38161;53.020;6.598;2022-09-02T11:08:43;2.38;;;1.15;;
52186;SDS011;38161;53.020;6.598;2022-09-02T11:11:18;4.50;;;1.23;;
52186;SDS011;38161;53.020;6.598;2022-09-02T11:14:08;3.42;;;1.27;;
52186;SDS011;38161;53.020;6.598;2022-09-02T11:16:43;2.47;;;1.10;;
52186;SDS011;38161;53.020;6.598;2022-09-02T11:19:14;3.88;;;1.10;;
52186;SDS011;38161;53.020;6.598;2022-09-02T11:32:15;7.38;;;1.35;;
52186;SDS011;38161;53.020;6.598;2022-09-02T11:34:46;2.78;;;1.13;;
52186;SDS011;38161;53.020;6.598;2022-09-02T11:37:23;5.15;;;1.20;;
52186;SDS011;38161;53.020;6.598;2022-09-02T11:39:59;1.95;;;0.80;;
52186;SDS011;38161;53.020;6.598;2022-09-02T11:42:36;3.13;;;1.15;;
52186;SDS011;38161;53.020;6.598;2022-09-02T11:53:34;3.85;;;1.17;;
52186;SDS011;38161;53.020;6.598;2022-09-02T11:56:04;2.40;;;1.20;;
52186;SDS011;38161;53.020;6.598;2022-09-02T11:58:38;7.47;;;1.30;;
52186;SDS011;38161;53.020;6.598;2022-09-02T12:03:53;5.88;;;1.30;;
52186;SDS011;38161;53.020;6.598;2022-09-02T12:06:35;3.92;;;1.15;;
52186;SDS011;38161;53.020;6.598;2022-09-02T12:09:02;2.28;;;1.23;;
52186;SDS011;38161;53.020;6.598;2022-09-02T12:11:41;2.38;;;1.15;;
52186;SDS011;38161;53.020;6.598;2022-09-02T12:17:00;9.52;;;1.52;;
52186;SDS011;38161;53.020;6.598;2022-09-02T12:27:33;2.80;;;1.40;;
52186;SDS011;38161;53.020;6.598;2022-09-02T12:30:05;12.50;;;1.60;;
52186;SDS011;38161;53.020;6.598;2022-09-02T12:38:19;2.10;;;1.17;;
52186;SDS011;38161;53.020;6.598;2022-09-02T12:41:29;2.55;;;1.30;;
52186;SDS011;38161;53.020;6.598;2022-09-02T12:49:08;1.80;;;1.10;;
52186;SDS011;38161;53.020;6.598;2022-09-02T12:51:54;1.38;;;1.00;;
52186;SDS011;38161;53.020;6.598;2022-09-02T12:57:02;2.03;;;1.17;;
52186;SDS011;38161;53.020;6.598;2022-09-02T12:59:31;6.47;;;1.55;;
52186;SDS011;38161;53.020;6.598;2022-09-02T13:05:18;4.85;;;1.48;;
52186;SDS011;38161;53.020;6.598;2022-09-02T13:10:52;3.25;;;1.20;;
52186;SDS011;38161;53.020;6.598;2022-09-02T13:13:54;1.60;;;1.20;;
52186;SDS011;38161;53.020;6.598;2022-09-02T13:19:11;5.80;;;1.65;;
52186;SDS011;38161;53.020;6.598;2022-09-02T13:22:03;7.18;;;1.27;;
52186;SDS011;38161;53.020;6.598;2022-09-02T13:27:18;2.20;;;1.17;;
52186;SDS011;38161;53.020;6.598;2022-09-02T13:30:01;1.88;;;1.20;;
52186;SDS011;38161;53.020;6.598;2022-09-02T13:32:37;4.78;;;1.40;;
52186;SDS011;38161;53.020;6.598;2022-09-02T13:35:07;2.78;;;1.25;;
52186;SDS011;38161;53.020;6.598;2022-09-02T13:37:42;3.88;;;1.30;;
52186;SDS011;38161;53.020;6.598;2022-09-02T13:40:18;3.20;;;1.35;;
52186;SDS011;38161;53.020;6.598;2022-09-02T13:42:48;1.73;;;1.10;;
52186;SDS011;38161;53.020;6.598;2022-09-02T13:45:16;3.70;;;1.50;;
52186;SDS011;38161;53.020;6.598;2022-09-02T13:48:02;6.45;;;1.48;;
52186;SDS011;38161;53.020;6.598;2022-09-02T13:50:32;3.33;;;1.30;;
52186;SDS011;38161;53.020;6.598;2022-09-02T13:55:57;6.53;;;1.55;;
52186;SDS011;38161;53.020;6.598;2022-09-02T14:00:53;4.05;;;1.30;;
52186;SDS011;38161;53.020;6.598;2022-09-02T14:03:21;8.23;;;1.48;;
52186;SDS011;38161;53.020;6.598;2022-09-02T14:05:48;5.70;;;1.50;;
52186;SDS011;38161;53.020;6.598;2022-09-02T14:08:22;3.05;;;1.20;;
52186;SDS011;38161;53.020;6.598;2022-09-02T14:10:51;3.42;;;1.40;;
52186;SDS011;38161;53.020;6.598;2022-09-02T14:13:18;3.28;;;1.52;;
52186;SDS011;38161;53.020;6.598;2022-09-02T14:15:45;4.20;;;1.40;;
52186;SDS011;38161;53.020;6.598;2022-09-02T14:23:50;2.67;;;1.37;;
52186;SDS011;38161;53.020;6.598;2022-09-02T14:26:24;4.38;;;1.98;;
52186;SDS011;38161;53.020;6.598;2022-09-02T14:28:54;3.72;;;1.58;;
52186;SDS011;38161;53.020;6.598;2022-09-02T14:31:25;5.75;;;1.60;;
52186;SDS011;38161;53.020;6.598;2022-09-02T14:33:55;2.38;;;1.40;;
52186;SDS011;38161;53.020;6.598;2022-09-02T14:38:51;2.08;;;1.40;;
52186;SDS011;38161;53.020;6.598;2022-09-02T14:41:24;2.25;;;1.20;;
52186;SDS011;38161;53.020;6.598;2022-09-02T14:43:58;3.58;;;1.70;;
52186;SDS011;38161;53.020;6.598;2022-09-02T14:46:34;1.50;;;1.25;;
52186;SDS011;38161;53.020;6.598;2022-09-02T14:49:21;3.20;;;1.65;;
52186;SDS011;38161;53.020;6.598;2022-09-02T14:52:04;3.35;;;1.63;;
52186;SDS011;38161;53.020;6.598;2022-09-02T14:54:46;1.77;;;1.30;;
52186;SDS011;38161;53.020;6.598;2022-09-02T14:59:48;4.28;;;1.85;;
52186;SDS011;38161;53.020;6.598;2022-09-02T15:02:20;3.55;;;1.63;;
52186;SDS011;38161;53.020;6.598;2022-09-02T15:04:46;4.72;;;1.90;;
52186;SDS011;38161;53.020;6.598;2022-09-02T15:07:12;4.50;;;1.48;;
52186;SDS011;38161;53.020;6.598;2022-09-02T15:09:37;5.00;;;1.50;;
52186;SDS011;38161;53.020;6.598;2022-09-02T15:12:04;2.95;;;1.42;;
52186;SDS011;38161;53.020;6.598;2022-09-02T15:14:30;1.92;;;1.25;;
52186;SDS011;38161;53.020;6.598;2022-09-02T15:16:56;1.55;;;1.27;;
52186;SDS011;38161;53.020;6.598;2022-09-02T15:19:23;3.65;;;1.35;;
52186;SDS011;38161;53.020;6.598;2022-09-02T15:21:48;2.50;;;1.40;;
52186;SDS011;38161;53.020;6.598;2022-09-02T15:24:14;1.50;;;1.30;;
52186;SDS011;38161;53.020;6.598;2022-09-02T15:26:40;4.63;;;1.52;;
52186;SDS011;38161;53.020;6.598;2022-09-02T15:29:06;4.53;;;1.48;;
52186;SDS011;38161;53.020;6.598;2022-09-02T15:31:32;5.40;;;3.05;;
52186;SDS011;38161;53.020;6.598;2022-09-02T15:34:00;2.65;;;1.50;;
52186;SDS011;38161;53.020;6.598;2022-09-02T15:36:27;4.43;;;1.63;;
52186;SDS011;38161;53.020;6.598;2022-09-02T15:38:52;2.55;;;1.52;;
52186;SDS011;38161;53.020;6.598;2022-09-02T15:41:19;2.58;;;1.50;;
52186;SDS011;38161;53.020;6.598;2022-09-02T15:43:48;5.68;;;1.70;;
52186;SDS011;38161;53.020;6.598;2022-09-02T15:48:47;2.30;;;1.52;;
52186;SDS011;38161;53.020;6.598;2022-09-02T15:51:14;2.53;;;1.73;;
52186;SDS011;38161;53.020;6.598;2022-09-02T15:53:41;2.20;;;1.30;;
52186;SDS011;38161;53.020;6.598;2022-09-02T15:56:17;1.92;;;1.50;;
52186;SDS011;38161;53.020;6.598;2022-09-02T15:58:45;2.75;;;1.58;;
52186;SDS011;38161;53.020;6.598;2022-09-02T16:01:11;3.60;;;1.70;;
52186;SDS011;38161;53.020;6.598;2022-09-02T16:06:03;3.90;;;1.40;;
52186;SDS011;38161;53.020;6.598;2022-09-02T16:08:32;3.60;;;1.45;;
52186;SDS011;38161;53.020;6.598;2022-09-02T16:11:05;4.07;;;1.63;;
52186;SDS011;38161;53.020;6.598;2022-09-02T16:13:33;4.90;;;1.80;;
52186;SDS011;38161;53.020;6.598;2022-09-02T16:16:01;5.72;;;1.77;;
52186;SDS011;38161;53.020;6.598;2022-09-02T16:18:29;18.98;;;2.00;;
52186;SDS011;38161;53.020;6.598;2022-09-02T16:20:55;4.85;;;1.70;;
52186;SDS011;38161;53.020;6.598;2022-09-02T16:23:21;2.25;;;1.70;;
52186;SDS011;38161;53.020;6.598;2022-09-02T16:25:47;3.28;;;1.70;;
52186;SDS011;38161;53.020;6.598;2022-09-02T16:28:13;4.38;;;1.75;;
52186;SDS011;38161;53.020;6.598;2022-09-02T16:30:39;1.88;;;1.33;;
52186;SDS011;38161;53.020;6.598;2022-09-02T16:33:05;6.50;;;1.88;;
52186;SDS011;38161;53.020;6.598;2022-09-02T16:35:30;5.28;;;1.60;;
52186;SDS011;38161;53.020;6.598;2022-09-02T16:37:56;5.78;;;1.60;;
52186;SDS011;38161;53.020;6.598;2022-09-02T16:40:22;2.55;;;1.50;;
52186;SDS011;38161;53.020;6.598;2022-09-02T16:42:48;2.38;;;1.38;;
52186;SDS011;38161;53.020;6.598;2022-09-02T16:45:14;3.55;;;1.77;;
52186;SDS011;38161;53.020;6.598;2022-09-02T16:47:40;4.53;;;1.50;;
52186;SDS011;38161;53.020;6.598;2022-09-02T16:50:05;4.25;;;1.67;;
52186;SDS011;38161;53.020;6.598;2022-09-02T16:52:33;3.65;;;1.40;;
52186;SDS011;38161;53.020;6.598;2022-09-02T16:54:59;2.33;;;1.40;;
52186;SDS011;38161;53.020;6.598;2022-09-02T16:57:25;4.72;;;1.55;;
52186;SDS011;38161;53.020;6.598;2022-09-02T16:59:51;4.78;;;1.85;;
52186;SDS011;38161;53.020;6.598;2022-09-02T17:02:16;16.02;;;1.80;;
52186;SDS011;38161;53.020;6.598;2022-09-02T17:04:42;2.35;;;1.60;;
52186;SDS011;38161;53.020;6.598;2022-09-02T17:07:08;5.20;;;1.45;;
52186;SDS011;38161;53.020;6.598;2022-09-02T17:09:34;5.53;;;1.80;;
52186;SDS011;38161;53.020;6.598;2022-09-02T17:12:00;4.10;;;1.80;;
52186;SDS011;38161;53.020;6.598;2022-09-02T17:14:25;4.53;;;1.50;;
52186;SDS011;38161;53.020;6.598;2022-09-02T17:16:51;4.07;;;1.85;;
52186;SDS011;38161;53.020;6.598;2022-09-02T17:19:18;3.40;;;1.45;;
52186;SDS011;38161;53.020;6.598;2022-09-02T17:21:48;4.55;;;1.60;;
52186;SDS011;38161;53.020;6.598;2022-09-02T17:24:18;3.33;;;1.60;;
52186;SDS011;38161;53.020;6.598;2022-09-02T17:26:47;5.53;;;2.13;;
52186;SDS011;38161;53.020;6.598;2022-09-02T17:29:16;5.00;;;1.67;;
52186;SDS011;38161;53.020;6.598;2022-09-02T17:31:46;6.20;;;1.40;;
52186;SDS011;38161;53.020;6.598;2022-09-02T17:34:12;6.32;;;2.50;;
52186;SDS011;38161;53.020;6.598;2022-09-02T17:36:39;4.10;;;1.60;;
52186;SDS011;38161;53.020;6.598;2022-09-02T17:39:07;4.95;;;1.45;;
52186;SDS011;38161;53.020;6.598;2022-09-02T17:41:33;2.25;;;1.40;;
52186;SDS011;38161;53.020;6.598;2022-09-02T17:44:19;4.35;;;1.63;;
52186;SDS011;38161;53.020;6.598;2022-09-02T17:46:46;3.10;;;1.50;;